4°C Temp
2°C Dewpoint
87% Humidity
Temperature
19 KM/H
12 MPH
10 KTS
300°
West North
West

Wind Speed
Partly Cloudy
Conditions
Pressure 1025.92 (hPa) - 30.3 (in)
Visibility 6.2 (mi) - 10.0 (km)

Current Conditions
EGNJ
Location 15(mi)
Metar :EGNJ 010950Z 30010KT 9999 FEW030 04/02 Q1026
Tue 1st December 09:50 am

Airport
  Metar Aviation API Data Provided by https://www.checkwx.com/ PHP scripts by weather34.com ©2020